Terminal Aerodrome Forecast
Issued by NWS Charleston, SC

Home | Current Version | Previous Version | Text Only | Print | Product List | Glossary On
Versions: 1 2 3 4 5 6 7 8 9 10 11 12 13 14 15 16 17 18 19 20 21
000
FTUS42 KCHS 211100
TAFSAV
TAF
KSAV 211126Z 2112/2212 02008KT 6SM -RA OVC006
     FM211800 02007KT 6SM BR BKN009 OVC015
     FM220000 03005KT 4SM BR VCSH OVC006
     FM220400 02006KT 3SM -RADZ BR OVC004=

USA.gov is the U.S. government's official web portal to all federal, state and local government web resources and services.